createdAt,value
2023-05-06T00:00:06.924Z,99446.78
2023-05-06T00:01:44.684Z,99448.41
2023-05-06T00:03:17.321Z,99442.13
2023-05-06T00:04:52.111Z,99442.97
2023-05-06T00:06:24.242Z,99451.72
2023-05-06T00:07:57.457Z,99445.44
2023-05-06T00:09:30.661Z,99446.19
2023-05-06T00:11:02.956Z,99451.50
2023-05-06T00:12:36.129Z,99443.47
2023-05-06T00:14:09.308Z,99448.59
2023-05-06T00:15:41.799Z,99444.09
2023-05-06T00:17:15.413Z,99436.81
2023-05-06T00:18:48.593Z,99448.19
2023-05-06T00:20:23.225Z,99439.19
2023-05-06T00:21:56.030Z,99441.78
2023-05-06T00:23:29.240Z,99439.97
2023-05-06T00:25:01.489Z,99441.41
2023-05-06T00:26:34.636Z,99446.31
2023-05-06T00:28:06.824Z,99436.16
2023-05-06T00:29:40.033Z,99434.72
2023-05-06T00:31:12.320Z,99437.69
2023-05-06T00:32:45.477Z,99428.34
2023-05-06T00:34:19.287Z,99435.38
2023-05-06T00:35:54.012Z,99432.84
2023-05-06T00:37:27.279Z,99433.63
2023-05-06T00:38:59.657Z,99436.22
2023-05-06T00:40:32.942Z,99432.91
2023-05-06T00:42:06.236Z,99433.78
2023-05-06T00:43:39.617Z,99440.78
2023-05-06T00:45:12.992Z,99429.31
2023-05-06T00:46:46.359Z,99430.31
2023-05-06T00:48:20.455Z,99436.44
2023-05-06T00:49:52.536Z,99431.91
2023-05-06T00:51:27.409Z,99440.56
2023-05-06T00:53:03.428Z,99434.38
2023-05-06T00:54:37.554Z,99431.72
2023-05-06T00:56:09.713Z,99424.69
2023-05-06T00:57:43.693Z,99431.72
2023-05-06T00:59:17.349Z,99422.84
2023-05-06T01:00:52.468Z,99429.03
2023-05-06T01:02:33.137Z,99432.34
2023-05-06T01:04:13.487Z,99429.53
2023-05-06T01:05:55.740Z,99434.72
2023-05-06T01:07:45.888Z,99425.78
2023-05-06T01:09:25.142Z,99425.56
2023-05-06T01:11:02.668Z,99430.88
2023-05-06T01:12:42.723Z,99422.81
2023-05-06T01:14:23.157Z,99429.88
2023-05-06T01:16:00.611Z,99422.03
2023-05-06T01:17:36.066Z,99434.34
2023-05-06T01:19:12.804Z,99427.22
2023-05-06T01:20:49.947Z,99432.38
2023-05-06T01:22:26.059Z,99426.56
2023-05-06T01:24:00.833Z,99421.69
2023-05-06T01:25:33.954Z,99428.16
2023-05-06T01:27:07.220Z,99436.16
2023-05-06T01:28:40.412Z,99430.81
2023-05-06T01:30:14.736Z,99421.75
2023-05-06T01:31:51.446Z,99427.66
2023-05-06T01:33:33.390Z,99429.53
2023-05-06T01:35:17.094Z,99424.34
2023-05-06T01:36:59.636Z,99426.31
2023-05-06T01:38:39.014Z,99427.16
2023-05-06T01:40:16.127Z,99433.44
2023-05-06T01:41:52.905Z,99427.16
2023-05-06T01:43:27.732Z,99430.56
2023-05-06T01:45:06.107Z,99429.53
2023-05-06T01:46:39.705Z,99430.63
2023-05-06T01:48:12.334Z,99431.63
2023-05-06T01:49:45.529Z,99426.44
2023-05-06T01:51:17.787Z,99415.91
2023-05-06T01:52:58.720Z,99415.59
2023-05-06T01:54:32.283Z,99428.97
2023-05-06T01:56:10.165Z,99431.63
2023-05-06T01:57:44.215Z,99432.47
2023-05-06T01:59:16.443Z,99424.56
2023-05-06T02:00:49.985Z,99421.13
2023-05-06T02:02:22.186Z,99421.13
2023-05-06T02:03:55.816Z,99420.28
2023-05-06T02:05:28.295Z,99422.84
2023-05-06T02:07:03.388Z,99424.47
2023-05-06T02:08:36.572Z,99422.53
2023-05-06T02:10:09.794Z,99432.97
2023-05-06T02:11:47.938Z,99426.81
2023-05-06T02:13:20.555Z,99422.63
2023-05-06T02:14:53.855Z,99420.66
2023-05-06T02:16:29.114Z,99418.94
2023-05-06T02:18:02.389Z,99419.94
2023-05-06T02:19:36.109Z,99420.09
2023-05-06T02:21:09.719Z,99427.09
2023-05-06T02:22:42.854Z,99426.31
2023-05-06T02:24:16.056Z,99431.63
2023-05-06T02:25:50.430Z,99428.91
2023-05-06T02:27:25.046Z,99421.81
2023-05-06T02:28:58.199Z,99418.94
2023-05-06T02:30:32.336Z,99416.28
2023-05-06T02:32:05.187Z,99418.22
2023-05-06T02:33:38.333Z,99426.81
2023-05-06T02:35:11.612Z,99422.31
2023-05-06T02:36:44.893Z,99429.28
2023-05-06T02:38:18.453Z,99426.69
2023-05-06T02:39:51.627Z,99418.69
2023-05-06T02:41:24.716Z,99423.97
2023-05-06T02:43:00.002Z,99427.44
2023-05-06T02:44:33.634Z,99420.44
2023-05-06T02:46:06.965Z,99429.16
2023-05-06T02:47:40.726Z,99418.56
2023-05-06T02:49:12.876Z,99420.44
2023-05-06T02:50:46.413Z,99425.72
2023-05-06T02:52:19.566Z,99428.59
2023-05-06T02:53:52.723Z,99434.00
2023-05-06T02:55:25.853Z,99431.34
2023-05-06T02:56:59.137Z,99434.84
2023-05-06T02:58:33.691Z,99432.06
2023-05-06T03:00:08.272Z,99440.00
2023-05-06T03:01:41.483Z,99439.03
2023-05-06T03:03:13.990Z,99435.44
2023-05-06T03:04:47.319Z,99439.88
2023-05-06T03:06:20.426Z,99440.00
2023-05-06T03:07:53.794Z,99434.84
2023-05-06T03:09:27.887Z,99432.50
2023-05-06T03:11:01.098Z,99437.22
2023-05-06T03:12:33.366Z,99432.16
2023-05-06T03:14:08.005Z,99435.81
2023-05-06T03:15:41.949Z,99444.69
2023-05-06T03:17:18.173Z,99448.38
2023-05-06T03:18:51.382Z,99448.53
2023-05-06T03:20:25.258Z,99445.91
2023-05-06T03:22:01.889Z,99447.59
2023-05-06T03:23:36.050Z,99451.97
2023-05-06T03:25:10.480Z,99440.28
2023-05-06T03:26:45.638Z,99448.09
2023-05-06T03:28:20.342Z,99453.34
2023-05-06T03:29:55.023Z,99449.84
2023-05-06T03:31:29.946Z,99449.78
2023-05-06T03:33:05.292Z,99454.13
2023-05-06T03:34:39.983Z,99449.66
2023-05-06T03:36:15.155Z,99456.63
2023-05-06T03:37:50.702Z,99456.69
2023-05-06T03:39:23.994Z,99455.19
2023-05-06T03:40:57.042Z,99450.81
2023-05-06T03:42:31.111Z,99456.28
2023-05-06T03:44:05.116Z,99450.97
2023-05-06T03:45:39.763Z,99453.47
2023-05-06T03:47:12.419Z,99455.19
2023-05-06T03:48:45.572Z,99460.38
2023-05-06T03:50:21.835Z,99459.38
2023-05-06T03:51:55.146Z,99471.81
2023-05-06T03:53:31.003Z,99467.38
2023-05-06T03:55:04.990Z,99467.16
2023-05-06T03:56:38.272Z,99466.09
2023-05-06T03:58:12.486Z,99470.41
2023-05-06T03:59:48.184Z,99482.63
2023-05-06T04:01:22.807Z,99476.28
2023-05-06T04:02:55.021Z,99481.34
2023-05-06T04:04:40.553Z,99474.97
2023-05-06T04:06:14.095Z,99485.34
2023-05-06T04:07:47.162Z,99484.19
2023-05-06T04:09:19.714Z,99488.34
2023-05-06T04:10:54.767Z,99493.41
2023-05-06T04:12:34.141Z,99496.75
2023-05-06T04:14:07.488Z,99492.13
2023-05-06T04:15:42.676Z,99496.41
2023-05-06T04:17:21.216Z,99496.25
2023-05-06T04:18:57.675Z,99490.16
2023-05-06T04:20:31.503Z,99492.94
2023-05-06T04:22:04.857Z,99487.84
2023-05-06T04:23:38.044Z,99495.03
2023-05-06T04:25:12.485Z,99496.84
2023-05-06T04:26:46.744Z,99485.19
2023-05-06T04:28:20.804Z,99491.16
2023-05-06T04:29:56.935Z,99501.53
2023-05-06T04:31:30.580Z,99497.88
2023-05-06T04:33:09.806Z,99498.53
2023-05-06T04:34:43.614Z,99495.50
2023-05-06T04:36:20.933Z,99491.81
2023-05-06T04:38:20.529Z,99484.06
2023-05-06T04:39:54.496Z,99491.53
2023-05-06T04:41:31.293Z,99494.91
2023-05-06T04:43:04.823Z,99502.81
2023-05-06T04:44:38.875Z,99494.72
2023-05-06T04:46:15.551Z,99495.28
2023-05-06T04:47:50.215Z,99495.94
2023-05-06T04:49:26.412Z,99493.03
2023-05-06T04:51:00.688Z,99499.56
2023-05-06T04:52:34.248Z,99504.38
2023-05-06T04:54:07.449Z,99506.41
2023-05-06T04:55:40.622Z,99502.13
2023-05-06T04:57:14.336Z,99509.97
2023-05-06T04:58:50.123Z,99513.16
2023-05-06T05:00:26.275Z,99508.13
2023-05-06T05:01:59.810Z,99508.66
2023-05-06T05:03:33.410Z,99506.34
2023-05-06T05:05:10.688Z,99509.00
2023-05-06T05:06:44.125Z,99502.25
2023-05-06T05:08:17.405Z,99503.28
2023-05-06T05:09:50.869Z,99504.78
2023-05-06T05:11:23.997Z,99499.34
2023-05-06T05:12:57.559Z,99510.13
2023-05-06T05:14:30.935Z,99504.66
2023-05-06T05:16:05.853Z,99499.41
2023-05-06T05:17:41.519Z,99509.81
2023-05-06T05:19:14.974Z,99509.66
2023-05-06T05:20:49.938Z,99499.97
2023-05-06T05:22:24.439Z,99504.66
2023-05-06T05:23:57.567Z,99510.13
2023-05-06T05:25:30.803Z,99506.53
2023-05-06T05:27:03.535Z,99513.88
2023-05-06T05:28:37.224Z,99507.78
2023-05-06T05:30:11.622Z,99507.00
2023-05-06T05:31:45.880Z,99501.66
2023-05-06T05:33:19.430Z,99503.22
2023-05-06T05:34:53.203Z,99506.22
2023-05-06T05:36:28.009Z,99508.88
2023-05-06T05:38:01.254Z,99508.72
2023-05-06T05:39:35.084Z,99507.97
2023-05-06T05:41:07.959Z,99505.91
2023-05-06T05:42:41.759Z,99504.03
2023-05-06T05:44:23.613Z,99496.03
2023-05-06T05:45:56.877Z,99498.69
2023-05-06T05:47:30.415Z,99499.00
2023-05-06T05:49:03.760Z,99497.13
2023-05-06T05:50:37.143Z,99506.66
2023-05-06T05:52:12.881Z,99505.13
2023-05-06T05:53:46.535Z,99502.63
2023-05-06T05:55:21.071Z,99508.25
2023-05-06T05:56:53.694Z,99508.41
2023-05-06T05:58:27.920Z,99504.78
2023-05-06T06:00:04.834Z,99508.09
2023-05-06T06:01:39.137Z,99502.84
2023-05-06T06:03:13.795Z,99499.41
2023-05-06T06:04:47.015Z,99501.03
2023-05-06T06:06:20.503Z,99502.22
2023-05-06T06:07:55.472Z,99497.13
2023-05-06T06:09:31.302Z,99507.00
2023-05-06T06:11:06.361Z,99506.16
2023-05-06T06:12:44.790Z,99504.19
2023-05-06T06:14:21.537Z,99501.50
2023-05-06T06:15:57.037Z,99499.81
2023-05-06T06:17:30.289Z,99501.66
2023-05-06T06:19:05.013Z,99501.66
2023-05-06T06:20:38.258Z,99501.50
2023-05-06T06:22:11.453Z,99500.63
2023-05-06T06:23:46.557Z,99503.22
2023-05-06T06:25:19.174Z,99509.72
2023-05-06T06:26:52.345Z,99508.16
2023-05-06T06:28:26.236Z,99505.72
2023-05-06T06:29:59.932Z,99500.25
2023-05-06T06:31:34.249Z,99503.72
2023-05-06T06:33:07.693Z,99499.47
2023-05-06T06:34:40.875Z,99505.91
2023-05-06T06:36:13.996Z,99507.91
2023-05-06T06:37:49.161Z,99504.47
2023-05-06T06:39:23.696Z,99508.38
2023-05-06T06:40:56.905Z,99510.59
2023-05-06T06:42:30.125Z,99514.28
2023-05-06T06:44:13.018Z,99508.28
2023-05-06T06:45:48.381Z,99508.28
2023-05-06T06:47:21.685Z,99505.22
2023-05-06T06:48:55.281Z,99506.28
2023-05-06T06:50:27.696Z,99505.63
2023-05-06T06:52:00.894Z,99504.03
2023-05-06T06:53:34.016Z,99503.44
2023-05-06T06:55:10.205Z,99507.00
2023-05-06T06:56:43.824Z,99506.56
2023-05-06T06:58:15.979Z,99504.31
2023-05-06T06:59:52.042Z,99504.31
2023-05-06T07:01:25.205Z,99509.66
2023-05-06T07:02:57.768Z,99498.13
2023-05-06T07:04:31.015Z,99498.19
2023-05-06T07:06:04.341Z,99502.41
2023-05-06T07:07:37.579Z,99505.88
2023-05-06T07:09:10.982Z,99509.16
2023-05-06T07:10:44.513Z,99510.88
2023-05-06T07:12:17.701Z,99509.44
2023-05-06T07:13:49.827Z,99504.44
2023-05-06T07:15:23.393Z,99511.75
2023-05-06T07:16:56.957Z,99510.50
2023-05-06T07:18:30.077Z,99510.19
2023-05-06T07:20:03.265Z,99511.09
2023-05-06T07:21:36.738Z,99508.03
2023-05-06T07:23:09.902Z,99500.78
2023-05-06T07:24:43.020Z,99502.63
2023-05-06T07:26:17.592Z,99510.34
2023-05-06T07:27:51.212Z,99514.38
2023-05-06T07:29:24.811Z,99507.94
2023-05-06T07:30:57.920Z,99513.94
2023-05-06T07:32:31.245Z,99512.06
2023-05-06T07:34:05.009Z,99516.63
2023-05-06T07:35:39.586Z,99514.56
2023-05-06T07:37:12.731Z,99505.28
2023-05-06T07:38:45.856Z,99503.63
2023-05-06T07:40:19.243Z,99513.72
2023-05-06T07:41:53.737Z,99509.84
2023-05-06T07:43:26.801Z,99512.28
2023-05-06T07:44:59.957Z,99507.72
2023-05-06T07:46:33.640Z,99501.19
2023-05-06T07:48:07.333Z,99504.94
2023-05-06T07:49:39.683Z,99508.59
2023-05-06T07:51:12.807Z,99509.50
2023-05-06T07:52:46.360Z,99513.78
2023-05-06T07:54:19.875Z,99504.41
2023-05-06T07:55:53.089Z,99498.72
2023-05-06T07:57:27.782Z,99509.25
2023-05-06T07:59:01.401Z,99512.59
2023-05-06T08:00:34.645Z,99507.22
2023-05-06T08:02:08.257Z,99502.75
2023-05-06T08:03:41.540Z,99513.03
2023-05-06T08:05:15.186Z,99510.69
2023-05-06T08:06:48.294Z,99505.13
2023-05-06T08:08:22.494Z,99504.38
2023-05-06T08:09:56.616Z,99506.09
2023-05-06T08:11:30.012Z,99498.78
2023-05-06T08:13:04.762Z,99498.44
2023-05-06T08:14:37.938Z,99494.75
2023-05-06T08:16:11.289Z,99498.13
2023-05-06T08:17:44.624Z,99497.72
2023-05-06T08:19:17.939Z,99489.63
2023-05-06T08:20:51.335Z,99499.69
2023-05-06T08:22:24.528Z,99494.28
2023-05-06T08:23:57.832Z,99494.47
2023-05-06T08:25:31.076Z,99485.88
2023-05-06T08:27:04.479Z,99482.56
2023-05-06T08:28:39.070Z,99490.34
2023-05-06T08:30:13.652Z,99480.72
2023-05-06T08:31:46.938Z,99489.28
2023-05-06T08:33:20.472Z,99484.59
2023-05-06T08:34:54.233Z,99486.25
2023-05-06T08:36:27.692Z,99484.31
2023-05-06T08:38:00.968Z,99478.44
2023-05-06T08:39:34.207Z,99479.09
2023-05-06T08:41:10.640Z,99478.16
2023-05-06T08:42:46.730Z,99478.16
2023-05-06T08:44:25.099Z,99476.47
2023-05-06T08:45:58.300Z,99477.44
2023-05-06T08:47:31.721Z,99474.56
2023-05-06T08:49:05.020Z,99479.84
2023-05-06T08:50:42.852Z,99472.28
2023-05-06T08:52:16.542Z,99474.03
2023-05-06T08:53:51.677Z,99467.34
2023-05-06T08:55:27.929Z,99473.41
2023-05-06T08:57:03.798Z,99476.72
2023-05-06T08:58:38.639Z,99472.50
2023-05-06T09:00:15.200Z,99475.56
2023-05-06T09:01:49.816Z,99479.66
2023-05-06T09:03:23.619Z,99476.44
2023-05-06T09:04:57.606Z,99468.78
2023-05-06T09:06:31.448Z,99467.22
2023-05-06T09:08:04.775Z,99458.00
2023-05-06T09:09:38.013Z,99466.88
2023-05-06T09:11:24.720Z,99464.09
2023-05-06T09:12:58.236Z,99459.13
2023-05-06T09:14:31.861Z,99461.59
2023-05-06T09:16:07.403Z,99452.94
2023-05-06T09:17:40.686Z,99463.19
2023-05-06T09:19:14.409Z,99457.78
2023-05-06T09:20:49.922Z,99458.91
2023-05-06T09:22:24.145Z,99449.22
2023-05-06T09:23:56.496Z,99446.22
2023-05-06T09:25:30.784Z,99457.06
2023-05-06T09:27:04.318Z,99454.28
2023-05-06T09:28:37.735Z,99440.88
2023-05-06T09:30:12.707Z,99437.91
2023-05-06T09:31:48.590Z,99452.25
2023-05-06T09:33:23.204Z,99448.75
2023-05-06T09:34:56.632Z,99441.44
2023-05-06T09:36:30.174Z,99446.50
2023-05-06T09:38:05.909Z,99443.22
2023-05-06T09:39:40.519Z,99451.78
2023-05-06T09:41:14.702Z,99447.69
2023-05-06T09:42:50.574Z,99448.69
2023-05-06T09:44:24.069Z,99442.47
2023-05-06T09:45:58.020Z,99441.63
2023-05-06T09:47:35.657Z,99441.09
2023-05-06T09:49:10.299Z,99445.41
2023-05-06T09:50:44.863Z,99435.47
2023-05-06T09:52:19.666Z,99434.31
2023-05-06T09:53:53.673Z,99441.66
2023-05-06T09:55:27.669Z,99430.53
2023-05-06T09:57:01.753Z,99432.72
2023-05-06T09:58:36.026Z,99428.56
2023-05-06T10:00:13.228Z,99426.88
2023-05-06T10:01:48.170Z,99428.59
2023-05-06T10:03:23.526Z,99432.31
2023-05-06T10:05:01.125Z,99426.72
2023-05-06T10:06:39.452Z,99427.44
2023-05-06T10:08:18.472Z,99431.31
2023-05-06T10:09:52.348Z,99424.69
2023-05-06T10:11:27.660Z,99416.63
2023-05-06T10:13:03.749Z,99421.63
2023-05-06T10:14:37.289Z,99415.47
2023-05-06T10:16:14.565Z,99427.88
2023-05-06T10:17:52.850Z,99423.47
2023-05-06T10:19:28.016Z,99423.03
2023-05-06T10:21:01.857Z,99415.31
2023-05-06T10:22:42.545Z,99412.50
2023-05-06T10:24:20.503Z,99415.41
2023-05-06T10:25:57.582Z,99413.47
2023-05-06T10:27:34.158Z,99411.72
2023-05-06T10:29:11.149Z,99417.06
2023-05-06T10:30:45.580Z,99401.94
2023-05-06T10:32:22.447Z,99403.75
2023-05-06T10:33:57.331Z,99400.06
2023-05-06T10:35:43.587Z,99403.38
2023-05-06T10:37:17.648Z,99399.25
2023-05-06T10:38:54.928Z,99404.56
2023-05-06T10:40:28.234Z,99396.66
2023-05-06T10:42:01.949Z,99398.31
2023-05-06T10:43:36.474Z,99401.47
2023-05-06T10:45:11.054Z,99408.16
2023-05-06T10:46:58.591Z,99395.91
2023-05-06T10:48:32.902Z,99395.91
2023-05-06T10:50:23.545Z,99395.63
2023-05-06T10:52:14.803Z,99398.28
2023-05-06T10:54:03.257Z,99385.22
2023-05-06T10:55:38.925Z,99402.13
2023-05-06T10:57:15.162Z,99400.91
2023-05-06T10:58:49.308Z,99405.69
2023-05-06T11:00:23.213Z,99402.53
2023-05-06T11:01:58.651Z,99403.03
2023-05-06T11:03:32.670Z,99402.81
2023-05-06T11:05:06.737Z,99405.19
2023-05-06T11:06:42.871Z,99391.34
2023-05-06T11:08:23.249Z,99418.91
2023-05-06T11:09:58.374Z,99410.47
2023-05-06T11:11:52.003Z,99404.91
2023-05-06T11:13:27.794Z,99404.53
2023-05-06T11:15:21.043Z,99405.91
2023-05-06T11:16:56.749Z,99409.09
2023-05-06T11:18:44.497Z,99410.31
2023-05-06T11:20:22.101Z,99415.19
2023-05-06T11:21:57.669Z,99408.31
2023-05-06T11:24:12.864Z,99419.34
2023-05-06T11:25:47.341Z,99413.94
2023-05-06T11:27:22.618Z,99412.34
2023-05-06T11:28:55.913Z,99409.75
2023-05-06T11:30:29.242Z,99404.00
2023-05-06T11:32:02.526Z,99406.94
2023-05-06T11:33:36.563Z,99400.31
2023-05-06T11:35:10.109Z,99391.78
2023-05-06T11:36:52.365Z,99388.78
2023-05-06T11:38:25.480Z,99387.75
2023-05-06T11:40:00.075Z,99385.00
2023-05-06T11:41:32.275Z,99397.28
2023-05-06T11:43:12.597Z,99387.81
2023-05-06T11:44:45.736Z,99387.84
2023-05-06T11:46:19.115Z,99383.03
2023-05-06T11:47:55.712Z,99388.19
2023-05-06T11:49:29.366Z,99390.25
2023-05-06T11:51:02.423Z,99384.31
2023-05-06T11:52:36.882Z,99392.97
2023-05-06T11:54:11.341Z,99394.84
2023-05-06T11:55:46.437Z,99383.31
2023-05-06T11:57:21.691Z,99384.06
2023-05-06T11:58:54.897Z,99388.56
2023-05-06T12:00:28.150Z,99388.28
2023-05-06T12:02:03.029Z,99389.59
2023-05-06T12:03:36.768Z,99374.63
2023-05-06T12:05:10.948Z,99372.06
2023-05-06T12:06:43.222Z,99390.56
2023-05-06T12:08:26.535Z,99372.19
2023-05-06T12:10:04.167Z,99384.13
2023-05-06T12:11:40.907Z,99375.47
2023-05-06T12:13:16.250Z,99371.16
2023-05-06T12:14:51.448Z,99380.78
2023-05-06T12:16:25.748Z,99375.97
2023-05-06T12:17:59.468Z,99375.34
2023-05-06T12:19:33.982Z,99379.94
2023-05-06T12:21:07.738Z,99379.84
2023-05-06T12:22:42.366Z,99381.91
2023-05-06T12:24:16.016Z,99382.19
2023-05-06T12:26:02.002Z,99381.91
2023-05-06T12:27:37.543Z,99378.59
2023-05-06T12:29:11.216Z,99369.75
2023-05-06T12:30:45.484Z,99370.31
2023-05-06T12:32:18.610Z,99374.09
2023-05-06T12:33:52.713Z,99370.06
2023-05-06T12:35:27.455Z,99373.66
2023-05-06T12:37:00.672Z,99367.34
2023-05-06T12:38:33.186Z,99369.69
2023-05-06T12:40:17.498Z,99382.41
2023-05-06T12:41:50.603Z,99371.44
2023-05-06T12:43:32.460Z,99372.38
2023-05-06T12:45:15.511Z,99373.28
2023-05-06T12:46:52.909Z,99371.06
2023-05-06T12:48:26.341Z,99362.47
2023-05-06T12:50:00.355Z,99369.78
2023-05-06T12:51:33.500Z,99358.34
2023-05-06T12:53:08.469Z,99359.06
2023-05-06T12:54:41.795Z,99355.88
2023-05-06T12:56:15.074Z,99361.03
2023-05-06T12:57:49.281Z,99356.53
2023-05-06T12:59:26.064Z,99361.38
2023-05-06T13:00:59.349Z,99354.56
2023-05-06T13:02:32.879Z,99349.44
2023-05-06T13:04:06.550Z,99355.72
2023-05-06T13:05:39.924Z,99358.06
2023-05-06T13:07:13.112Z,99354.81
2023-05-06T13:08:45.276Z,99343.19
2023-05-06T13:10:18.434Z,99345.47
2023-05-06T13:11:52.233Z,99343.06
2023-05-06T13:13:26.071Z,99333.50
2023-05-06T13:15:00.608Z,99342.56
2023-05-06T13:16:35.012Z,99341.81
2023-05-06T13:18:08.493Z,99348.91
2023-05-06T13:19:42.268Z,99343.75
2023-05-06T13:21:15.896Z,99349.94
2023-05-06T13:22:54.901Z,99347.97
2023-05-06T13:24:28.692Z,99352.16
2023-05-06T13:26:06.066Z,99352.16
2023-05-06T13:27:39.572Z,99347.97
2023-05-06T13:29:12.738Z,99353.84
2023-05-06T13:30:47.560Z,99347.91
2023-05-06T13:32:20.960Z,99342.47
2023-05-06T13:33:54.328Z,99341.94
2023-05-06T13:35:27.470Z,99349.97
2023-05-06T13:37:01.109Z,99336.75
2023-05-06T13:38:34.343Z,99343.13
2023-05-06T13:40:08.901Z,99342.66
2023-05-06T13:41:42.178Z,99339.94
2023-05-06T13:43:15.799Z,99341.56
2023-05-06T13:44:49.184Z,99335.75
2023-05-06T13:46:23.737Z,99338.13
2023-05-06T13:47:56.980Z,99339.56
2023-05-06T13:49:30.282Z,99339.31
2023-05-06T13:51:03.577Z,99323.09
2023-05-06T13:52:36.765Z,99327.25
2023-05-06T13:54:10.216Z,99326.63
2023-05-06T13:55:44.405Z,99324.69
2023-05-06T13:57:18.997Z,99324.03
2023-05-06T13:58:53.268Z,99330.41
2023-05-06T14:00:26.896Z,99331.69
2023-05-06T14:02:01.863Z,99322.19
2023-05-06T14:03:35.422Z,99327.03
2023-05-06T14:05:09.927Z,99319.75
2023-05-06T14:06:43.501Z,99328.13
2023-05-06T14:08:16.744Z,99328.38
2023-05-06T14:09:49.994Z,99328.63
2023-05-06T14:11:23.140Z,99326.75
2023-05-06T14:12:56.347Z,99326.25
2023-05-06T14:14:29.870Z,99330.47
2023-05-06T14:16:03.635Z,99323.63
2023-05-06T14:17:39.961Z,99325.88
2023-05-06T14:19:13.175Z,99325.44
2023-05-06T14:20:46.590Z,99318.31
2023-05-06T14:22:20.167Z,99316.53
2023-05-06T14:23:53.264Z,99314.97
2023-05-06T14:25:28.049Z,99318.50
2023-05-06T14:27:01.646Z,99321.63
2023-05-06T14:28:34.997Z,99319.38
2023-05-06T14:30:09.955Z,99317.34
2023-05-06T14:31:43.221Z,99317.75
2023-05-06T14:33:18.087Z,99315.47
2023-05-06T14:34:51.568Z,99308.91
2023-05-06T14:36:24.730Z,99312.91
2023-05-06T14:37:57.814Z,99316.31
2023-05-06T14:39:31.081Z,99314.63
2023-05-06T14:41:04.762Z,99313.63
2023-05-06T14:42:38.390Z,99309.50
2023-05-06T14:44:11.587Z,99298.81
2023-05-06T14:45:45.045Z,99310.88
2023-05-06T14:47:19.040Z,99308.66
2023-05-06T14:48:53.647Z,99306.38
2023-05-06T14:50:27.172Z,99302.41
2023-05-06T14:52:00.690Z,99304.38
2023-05-06T14:53:34.414Z,99303.81
2023-05-06T14:55:10.380Z,99305.63
2023-05-06T14:56:45.551Z,99302.91
2023-05-06T14:58:19.077Z,99303.16
2023-05-06T14:59:52.777Z,99303.44
2023-05-06T15:01:25.988Z,99306.50
2023-05-06T15:02:59.520Z,99301.91
2023-05-06T15:04:34.369Z,99310.91
2023-05-06T15:06:07.869Z,99302.66
2023-05-06T15:07:41.291Z,99308.56
2023-05-06T15:09:14.546Z,99308.00
2023-05-06T15:10:49.601Z,99306.81
2023-05-06T15:12:21.910Z,99303.94
2023-05-06T15:13:55.570Z,99288.50
2023-05-06T15:15:29.080Z,99297.84
2023-05-06T15:17:02.769Z,99301.81
2023-05-06T15:18:38.141Z,99300.63
2023-05-06T15:20:14.353Z,99306.56
2023-05-06T15:21:47.461Z,99308.75
2023-05-06T15:23:21.673Z,99305.06
2023-05-06T15:24:54.954Z,99306.31
2023-05-06T15:26:28.088Z,99305.84
2023-05-06T15:28:01.218Z,99306.94
2023-05-06T15:29:34.605Z,99307.19
2023-05-06T15:31:08.506Z,99301.47
2023-05-06T15:32:41.759Z,99301.47
2023-05-06T15:34:15.374Z,99299.28
2023-05-06T15:35:50.569Z,99295.72
2023-05-06T15:37:23.988Z,99301.97
2023-05-06T15:39:00.122Z,99296.59
2023-05-06T15:40:33.751Z,99305.91
2023-05-06T15:42:07.240Z,99296.84
2023-05-06T15:43:40.883Z,99303.47
2023-05-06T15:45:14.073Z,99297.09
2023-05-06T15:46:47.327Z,99298.81
2023-05-06T15:48:20.590Z,99303.22
2023-05-06T15:49:55.065Z,99296.84
2023-05-06T15:51:29.893Z,99303.69
2023-05-06T15:53:03.535Z,99296.34
2023-05-06T15:54:37.709Z,99305.91
2023-05-06T15:56:18.277Z,99290.75
2023-05-06T15:57:53.704Z,99297.38
2023-05-06T15:59:27.064Z,99297.63
2023-05-06T16:01:00.627Z,99292.50
2023-05-06T16:02:34.068Z,99287.34
2023-05-06T16:04:07.360Z,99295.81
2023-05-06T16:05:40.993Z,99293.50
2023-05-06T16:07:15.864Z,99302.84
2023-05-06T16:08:48.226Z,99301.09
2023-05-06T16:10:21.530Z,99305.88
2023-05-06T16:11:55.215Z,99299.28
2023-05-06T16:13:28.497Z,99307.75
2023-05-06T16:15:01.941Z,99291.88
2023-05-06T16:16:35.196Z,99304.78
2023-05-06T16:18:08.557Z,99296.72
2023-05-06T16:19:42.056Z,99296.25
2023-05-06T16:21:15.218Z,99300.06
2023-05-06T16:22:52.450Z,99293.06
2023-05-06T16:24:25.645Z,99297.72
2023-05-06T16:26:01.145Z,99291.59
2023-05-06T16:27:35.520Z,99286.72
2023-05-06T16:29:08.715Z,99292.81
2023-05-06T16:30:44.684Z,99299.94
2023-05-06T16:32:18.310Z,99295.03
2023-05-06T16:33:51.406Z,99293.34
2023-05-06T16:35:23.736Z,99296.97
2023-05-06T16:36:57.391Z,99297.50
2023-05-06T16:38:32.289Z,99299.66
2023-05-06T16:40:06.239Z,99301.41
2023-05-06T16:41:39.298Z,99301.41
2023-05-06T16:43:12.426Z,99304.81
2023-05-06T16:44:46.564Z,99307.50
2023-05-06T16:46:20.560Z,99307.50
2023-05-06T16:47:55.311Z,99308.97
2023-05-06T16:49:28.869Z,99305.78
2023-05-06T16:51:02.330Z,99306.25
2023-05-06T16:52:35.463Z,99309.94
2023-05-06T16:54:10.043Z,99306.66
2023-05-06T16:55:47.929Z,99312.63
2023-05-06T16:57:21.362Z,99311.13
2023-05-06T16:58:54.516Z,99307.66
2023-05-06T17:00:28.171Z,99314.03
2023-05-06T17:02:01.303Z,99309.63
2023-05-06T17:03:37.327Z,99318.94
2023-05-06T17:05:10.744Z,99306.94
2023-05-06T17:06:43.938Z,99312.69
2023-05-06T17:08:17.269Z,99311.72
2023-05-06T17:09:52.203Z,99317.09
2023-05-06T17:11:25.344Z,99315.81
2023-05-06T17:12:59.302Z,99315.19
2023-05-06T17:14:32.669Z,99314.34
2023-05-06T17:16:06.758Z,99305.75
2023-05-06T17:17:40.836Z,99311.13
2023-05-06T17:19:14.116Z,99319.94
2023-05-06T17:20:54.830Z,99316.16
2023-05-06T17:22:29.709Z,99315.56
2023-05-06T17:24:02.813Z,99318.25
2023-05-06T17:25:37.360Z,99317.72
2023-05-06T17:27:10.920Z,99325.97
2023-05-06T17:28:44.251Z,99323.00
2023-05-06T17:30:17.339Z,99324.41
2023-05-06T17:31:50.781Z,99323.91
2023-05-06T17:33:23.976Z,99323.91
2023-05-06T17:34:57.239Z,99328.63
2023-05-06T17:36:30.456Z,99330.69
2023-05-06T17:38:04.036Z,99337.03
2023-05-06T17:39:38.312Z,99331.66
2023-05-06T17:41:13.248Z,99324.16
2023-05-06T17:42:46.399Z,99335.00
2023-05-06T17:44:19.638Z,99334.50
2023-05-06T17:45:53.093Z,99341.06
2023-05-06T17:47:30.316Z,99335.19
2023-05-06T17:49:03.651Z,99356.66
2023-05-06T17:50:36.887Z,99361.16
2023-05-06T17:52:10.075Z,99368.81
2023-05-06T17:53:43.646Z,99368.88
2023-05-06T17:55:17.582Z,99359.75
2023-05-06T17:56:53.106Z,99359.84
2023-05-06T17:58:26.417Z,99366.84
2023-05-06T17:59:59.738Z,99380.03
2023-05-06T18:01:32.265Z,99373.91
2023-05-06T18:03:05.835Z,99383.47
2023-05-06T18:04:39.450Z,99385.50
2023-05-06T18:06:13.095Z,99381.72
2023-05-06T18:07:47.821Z,99389.00
2023-05-06T18:09:20.956Z,99394.38
2023-05-06T18:10:54.156Z,99391.78
2023-05-06T18:12:28.975Z,99395.34
2023-05-06T18:14:02.136Z,99397.91
2023-05-06T18:15:35.238Z,99394.38
2023-05-06T18:17:08.505Z,99398.00
2023-05-06T18:18:41.936Z,99394.38
2023-05-06T18:20:15.282Z,99395.00
2023-05-06T18:21:48.489Z,99400.38
2023-05-06T18:23:21.868Z,99392.63
2023-05-06T18:24:55.615Z,99404.72
2023-05-06T18:28:09.750Z,99404.91
2023-05-06T18:29:42.859Z,99408.41
2023-05-06T18:31:16.230Z,99411.19
2023-05-06T18:32:51.356Z,99409.69